Time;durP1;ratioP1;P1;durP2;ratioP2;P2;SDS_P1;SDS_P2;PMS_P1;PMS_P2;Temp;Humidity;BMP_temperature;BMP_pressure;BME280_temperature;BME280_humidity;BME280_pressure;Samples;Min_cycle;Max_cycle;Signal;HPM_P1;HPM_P2
2021/11/05 00:00:00;;;;;;;2.35;1.45;;;;;;;8.92;54.03;96755.97;1830310;78;26622;-83
2021/11/05 00:02:30;;;;;;;2.00;1.30;;;;;;;8.85;54.09;96758.69;1810706;77;25969;-83
2021/11/05 00:04:57;;;;;;;2.60;1.85;;;;;;;8.82;54.23;96763.15;1794421;77;27395;-83
2021/11/05 00:07:24;;;;;;;3.98;1.77;;;;;;;8.81;54.36;96774.98;1812701;77;25919;-83
2021/11/05 00:09:51;;;;;;;3.02;1.62;;;;;;;8.79;54.60;96787.83;1825246;77;25720;-83
2021/11/05 00:12:17;;;;;;;2.37;1.75;;;;;;;8.74;54.88;96785.45;1823836;78;25730;-85
2021/11/05 00:14:44;;;;;;;2.50;1.75;;;;;;;8.64;55.03;96794.00;1835926;78;26356;-83
2021/11/05 00:17:11;;;;;;;2.42;1.80;;;;;;;8.60;55.14;96800.83;1835808;77;27343;-84
2021/11/05 00:19:38;;;;;;;1.95;1.55;;;;;;;8.50;55.37;96809.36;1835791;78;25674;-84
2021/11/05 00:22:06;;;;;;;1.80;1.50;;;;;;;8.43;55.50;96811.26;1835319;78;26379;-84
2021/11/05 00:24:33;;;;;;;1.90;1.50;;;;;;;8.45;55.64;96811.05;1815855;78;26229;-84
2021/11/05 00:27:00;;;;;;;3.70;1.30;;;;;;;8.42;55.70;96812.30;1810052;78;25731;-84
2021/11/05 00:29:26;;;;;;;2.02;1.47;;;;;;;8.35;55.84;96810.64;1836035;78;27330;-84
2021/11/05 00:31:53;;;;;;;3.45;1.77;;;;;;;8.21;55.87;96818.72;1835724;77;25824;-83
2021/11/05 00:34:20;;;;;;;1.92;1.40;;;;;;;8.08;56.25;96820.12;1835718;78;25734;-83
2021/11/05 00:36:47;;;;;;;1.55;1.45;;;;;;;7.92;56.30;96829.44;1811806;78;25670;-83
2021/11/05 00:39:15;;;;;;;1.85;1.45;;;;;;;7.85;56.53;96826.42;1835427;78;25691;-83
2021/11/05 00:41:42;;;;;;;3.12;1.60;;;;;;;7.83;56.64;96829.34;1814610;78;28189;-84
2021/11/05 00:44:09;;;;;;;2.60;1.82;;;;;;;7.74;56.73;96830.57;1833985;78;25719;-82
2021/11/05 00:46:36;;;;;;;1.45;1.35;;;;;;;7.63;56.83;96837.91;1835895;78;25746;-83
2021/11/05 00:49:03;;;;;;;4.15;2.02;;;;;;;7.51;56.99;96837.70;1835889;78;26116;-83
2021/11/05 00:51:30;;;;;;;1.75;1.27;;;;;;;7.47;57.28;96847.22;1821020;78;25714;-83
2021/11/05 00:53:57;;;;;;;2.22;1.50;;;;;;;7.42;57.49;96849.68;1832797;78;27360;-85
2021/11/05 00:56:24;;;;;;;1.72;1.50;;;;;;;7.31;57.63;96854.31;1822776;78;25229;-84
2021/11/05 00:58:51;;;;;;;4.47;1.62;;;;;;;7.22;57.74;96859.57;1825830;78;25683;-84
2021/11/05 01:01:18;;;;;;;2.33;1.75;;;;;;;7.20;57.91;96866.48;1814961;77;26054;-83
2021/11/05 01:03:44;;;;;;;2.60;1.77;;;;;;;7.17;57.94;96868.73;1815319;77;25767;-82
2021/11/05 01:06:17;;;;;;;2.58;1.90;;;;;;;7.14;58.12;96865.11;1840572;77;28239;-82
2021/11/05 01:08:45;;;;;;;2.72;1.60;;;;;;;7.12;58.20;96868.02;1844200;77;25670;-83
2021/11/05 01:11:12;;;;;;;1.98;1.50;;;;;;;7.08;58.23;96862.73;1815678;77;25981;-83
2021/11/05 01:13:39;;;;;;;3.67;1.72;;;;;;;7.05;58.25;96870.36;1837908;77;26332;-82
2021/11/05 01:16:06;;;;;;;2.62;2.00;;;;;;;7.02;58.36;96879.63;1841377;76;25737;-84
2021/11/05 01:18:33;;;;;;;2.45;1.32;;;;;;;6.94;58.39;96876.31;1844170;77;28283;-81
2021/11/05 01:21:00;;;;;;;1.85;1.52;;;;;;;6.88;58.47;96882.78;1843863;77;25719;-82
2021/11/05 01:23:26;;;;;;;2.42;1.60;;;;;;;6.81;58.61;96881.11;1843833;77;25711;-82
2021/11/05 01:25:53;;;;;;;1.70;1.45;;;;;;;6.65;58.68;96888.98;1844179;77;25663;-81
2021/11/05 01:28:20;;;;;;;1.95;1.35;;;;;;;6.57;58.81;96893.17;1844226;77;25684;-82
2021/11/05 01:30:46;;;;;;;1.30;1.10;;;;;;;6.50;58.88;96891.81;1818490;77;27375;-83
2021/11/05 01:33:14;;;;;;;2.50;1.40;;;;;;;6.45;58.93;96895.59;1836842;77;25754;-83
2021/11/05 01:35:42;;;;;;;3.62;1.22;;;;;;;6.43;59.06;96895.47;1835435;77;25870;-83
2021/11/05 01:38:09;;;;;;;2.05;1.30;;;;;;;6.45;59.19;96892.91;1829750;77;25820;-82
2021/11/05 01:40:42;;;;;;;2.20;1.72;;;;;;;6.47;59.21;96902.92;1810764;77;26927;-81
2021/11/05 01:43:11;;;;;;;2.12;1.55;;;;;;;6.46;59.15;96909.31;1844140;77;27365;-82
2021/11/05 01:45:37;;;;;;;1.75;1.40;;;;;;;6.45;59.24;96905.48;1843911;77;25655;-81
2021/11/05 01:48:04;;;;;;;1.90;1.70;;;;;;;6.45;59.28;96905.48;1844051;77;25743;-81
2021/11/05 01:50:31;;;;;;;1.92;1.50;;;;;;;6.43;59.25;96908.36;1840817;77;25666;-83
2021/11/05 01:52:59;;;;;;;1.67;1.50;;;;;;;6.40;59.26;96909.29;1814645;77;25711;-82
2021/11/05 01:55:25;;;;;;;2.52;1.52;;;;;;;6.35;59.39;96905.84;1844179;77;27397;-83
2021/11/05 01:57:52;;;;;;;2.95;1.52;;;;;;;6.29;59.47;96905.28;1843955;77;26459;-82
2021/11/05 02:00:24;;;;;;;2.37;1.50;;;;;;;6.24;59.47;96912.27;1844046;77;25769;-82
2021/11/05 02:02:51;;;;;;;4.03;1.85;;;;;;;6.18;59.61;96911.19;1843926;77;25647;-83
2021/11/05 02:05:19;;;;;;;1.90;1.62;;;;;;;6.10;59.74;96918.88;1844031;77;25809;-83
2021/11/05 02:07:51;;;;;;;2.25;1.60;;;;;;;6.09;59.84;96918.55;1844048;77;27340;-82
2021/11/05 02:10:20;;;;;;;1.85;1.40;;;;;;;6.12;59.89;96912.81;1836064;77;25648;-82
2021/11/05 02:12:48;;;;;;;2.83;1.30;;;;;;;6.06;59.90;96921.61;1837663;76;25663;-82
2021/11/05 02:15:17;;;;;;;1.87;1.60;;;;;;;5.97;60.00;96911.23;1844139;77;25738;-81
2021/11/05 02:17:46;;;;;;;1.35;1.25;;;;;;;5.90;60.13;96912.55;1844168;77;25697;-83
2021/11/05 02:20:17;;;;;;;2.05;1.50;;;;;;;5.85;60.24;96918.95;1844127;77;27326;-82
2021/11/05 02:22:45;;;;;;;1.90;1.70;;;;;;;5.74;60.29;96922.15;1843156;76;25706;-82
2021/11/05 02:25:12;;;;;;;1.60;1.50;;;;;;;5.75;60.56;96921.13;1825435;77;25815;-82
2021/11/05 02:27:40;;;;;;;2.95;1.70;;;;;;;5.65;60.58;96920.13;1834489;77;26023;-82
2021/11/05 02:30:09;;;;;;;2.35;1.70;;;;;;;5.67;60.78;96914.58;1836859;77;25874;-82
2021/11/05 02:32:37;;;;;;;3.02;1.92;;;;;;;5.65;60.81;96917.95;1844232;77;27446;-82
2021/11/05 02:35:05;;;;;;;3.42;2.10;;;;;;;5.66;60.90;96923.63;1844199;77;25260;-82
2021/11/05 02:37:33;;;;;;;3.85;2.17;;;;;;;5.70;60.99;96935.09;1844286;77;25261;-82
2021/11/05 02:40:00;;;;;;;2.17;1.65;;;;;;;5.77;61.01;96937.84;1843651;77;25712;-82
2021/11/05 02:42:27;;;;;;;2.05;1.75;;;;;;;5.77;60.98;96936.50;1831373;77;25515;-83
2021/11/05 02:44:53;;;;;;;2.58;1.65;;;;;;;5.74;61.01;96940.89;1837821;76;27532;-82
2021/11/05 02:47:26;;;;;;;1.72;1.60;;;;;;;5.71;61.08;96945.29;1843895;77;25730;-82
2021/11/05 02:49:57;;;;;;;1.42;1.07;;;;;;;5.68;61.14;96942.98;1826193;77;26278;-81
2021/11/05 02:52:24;;;;;;;1.40;1.30;;;;;;;5.75;61.13;96946.58;1843094;77;25790;-83
2021/11/05 02:54:51;;;;;;;3.95;1.30;;;;;;;5.84;61.06;96941.39;1844281;77;25354;-82
2021/11/05 02:57:18;;;;;;;1.42;1.32;;;;;;;5.93;61.02;96944.78;1844151;77;26771;-83
2021/11/05 02:59:45;;;;;;;1.62;1.32;;;;;;;5.97;60.91;96940.20;1808922;77;25736;-82
2021/11/05 03:02:12;;;;;;;2.20;1.12;;;;;;;6.01;60.83;96942.82;1823084;77;25309;-82
2021/11/05 03:04:39;;;;;;;1.30;1.20;;;;;;;6.06;60.73;96939.54;1842237;77;26074;-82
2021/11/05 03:07:09;;;;;;;1.22;1.12;;;;;;;6.07;60.80;96947.39;1828474;77;25785;-82
2021/11/05 03:09:41;;;;;;;1.50;1.27;;;;;;;6.10;60.82;96956.39;1836086;77;27363;-84
2021/11/05 03:12:10;;;;;;;1.60;1.45;;;;;;;6.09;60.81;96965.45;1827597;77;25872;-82
2021/11/05 03:14:39;;;;;;;3.17;1.10;;;;;;;6.05;60.84;96968.19;1840845;77;26439;-82
2021/11/05 03:17:07;;;;;;;1.50;1.40;;;;;;;6.00;60.87;96976.50;1815367;77;25882;-82
2021/11/05 03:19:34;;;;;;;1.52;1.42;;;;;;;5.92;60.88;96985.98;1844205;77;25680;-82
2021/11/05 03:22:01;;;;;;;1.55;1.45;;;;;;;5.88;61.04;96997.63;1835924;77;27541;-82
2021/11/05 03:24:28;;;;;;;1.37;1.27;;;;;;;5.78;61.07;97005.95;1841663;77;25284;-84
2021/11/05 03:26:55;;;;;;;2.65;1.55;;;;;;;5.72;61.21;97003.19;1843895;77;25285;-82
2021/11/05 03:29:23;;;;;;;1.60;1.47;;;;;;;5.68;61.37;97000.56;1840114;76;25785;-82
2021/11/05 03:31:50;;;;;;;2.20;1.72;;;;;;;5.65;61.40;97007.16;1840724;77;25727;-83
2021/11/05 03:34:16;;;;;;;2.02;1.40;;;;;;;5.61;61.44;97008.54;1824679;77;27360;-82
2021/11/05 03:36:43;;;;;;;1.95;1.70;;;;;;;5.59;61.46;97010.57;1843947;77;25720;-84
2021/11/05 03:39:09;;;;;;;1.62;1.47;;;;;;;5.59;61.60;97015.09;1841464;77;26473;-84
2021/11/05 03:41:36;;;;;;;2.65;1.80;;;;;;;5.63;61.60;97013.70;1824130;77;25270;-82
2021/11/05 03:44:03;;;;;;;1.52;1.42;;;;;;;5.54;61.65;97029.07;1839161;77;25619;-83
2021/11/05 03:46:32;;;;;;;1.40;1.20;;;;;;;5.45;61.68;97043.56;1833588;77;27341;-82
2021/11/05 03:48:59;;;;;;;3.15;1.27;;;;;;;5.50;61.72;97043.02;1839752;77;25793;-82
2021/11/05 03:51:25;;;;;;;1.40;1.30;;;;;;;5.60;61.88;97047.55;1830240;77;25698;-83
2021/11/05 03:53:52;;;;;;;1.60;1.50;;;;;;;5.65;61.84;97054.52;1838357;77;25801;-81
2021/11/05 03:56:19;;;;;;;1.50;1.40;;;;;;;5.70;61.63;97054.25;1815236;77;25825;-81
2021/11/05 03:58:45;;;;;;;1.80;1.70;;;;;;;5.78;61.70;97057.34;1841915;76;27365;-81
2021/11/05 04:01:12;;;;;;;1.80;1.70;;;;;;;5.84;61.55;97057.91;1843980;77;25890;-82
2021/11/05 04:03:39;;;;;;;1.30;1.20;;;;;;;5.90;61.52;97061.22;1844082;77;25730;-82
2021/11/05 04:06:06;;;;;;;1.87;1.50;;;;;;;5.94;61.43;97058.45;1837229;77;26277;-83
2021/11/05 04:08:32;;;;;;;1.90;1.80;;;;;;;5.98;61.40;97050.87;1828421;77;25735;-81
2021/11/05 04:11:00;;;;;;;1.77;1.65;;;;;;;6.01;61.36;97052.67;1844400;77;27363;-81
2021/11/05 04:13:26;;;;;;;1.90;1.80;;;;;;;6.05;61.32;97048.56;1829574;77;25871;-82
2021/11/05 04:15:55;;;;;;;2.05;1.67;;;;;;;6.09;61.29;97045.00;1834482;77;25713;-81
2021/11/05 04:18:21;;;;;;;1.50;1.40;;;;;;;6.09;61.26;97045.83;1811222;77;25691;-83
2021/11/05 04:20:48;;;;;;;1.45;1.35;;;;;;;6.09;61.19;97048.52;1811136;77;25779;-82
2021/11/05 04:23:17;;;;;;;2.47;1.47;;;;;;;6.11;61.20;97046.48;1843474;77;27372;-81
2021/11/05 04:25:44;;;;;;;1.77;1.52;;;;;;;6.12;61.16;97045.97;1844322;77;26356;-82
2021/11/05 04:28:12;;;;;;;1.75;1.65;;;;;;;6.12;61.33;97038.76;1815884;77;25669;-81
2021/11/05 04:30:39;;;;;;;1.85;1.57;;;;;;;6.09;61.25;97035.63;1843243;77;25717;-82
2021/11/05 04:33:07;;;;;;;1.50;1.40;;;;;;;6.03;61.25;97034.56;1817016;77;25707;-84
2021/11/05 04:35:33;;;;;;;3.27;1.40;;;;;;;6.01;61.25;97035.77;1837311;77;28454;-82
2021/11/05 04:38:00;;;;;;;2.15;1.62;;;;;;;5.91;61.30;97033.41;1826049;77;25727;-81
2021/11/05 04:40:27;;;;;;;3.47;2.10;;;;;;;5.85;61.39;97038.66;1811200;77;25746;-80
2021/11/05 04:42:54;;;;;;;3.58;1.85;;;;;;;5.83;61.32;97050.89;1842921;77;25745;-83
2021/11/05 04:45:20;;;;;;;1.50;1.37;;;;;;;5.80;61.36;97052.09;1826473;77;25663;-82
2021/11/05 04:47:47;;;;;;;2.55;2.15;;;;;;;5.79;61.42;97054.98;1837550;77;27306;-81
2021/11/05 04:50:14;;;;;;;2.33;1.80;;;;;;;5.77;61.40;97054.34;1836738;77;26272;-81
2021/11/05 04:52:47;;;;;;;2.00;1.70;;;;;;;5.73;61.34;97059.24;1836721;77;25770;-80
2021/11/05 04:55:10;;;;;;;1.60;1.50;;;;;;;5.71;61.48;97067.14;1823565;77;25755;-82
2021/11/05 04:57:37;;;;;;;2.40;1.98;;;;;;;5.69;61.55;97062.48;1841824;77;25706;-81
2021/11/05 05:00:07;;;;;;;2.83;2.22;;;;;;;5.68;61.64;97063.49;1844457;77;28297;-82
2021/11/05 05:02:34;;;;;;;4.40;2.12;;;;;;;5.67;61.67;97069.89;1844136;76;25244;-82
2021/11/05 05:05:02;;;;;;;2.30;2.10;;;;;;;5.64;61.72;97072.44;1844412;77;26450;-83
2021/11/05 05:07:29;;;;;;;2.20;1.90;;;;;;;5.64;61.74;97084.99;1844398;77;26193;-81
2021/11/05 05:09:56;;;;;;;3.30;2.00;;;;;;;5.63;61.73;97081.48;1844285;77;25671;-81
2021/11/05 05:12:22;;;;;;;2.52;2.20;;;;;;;5.62;61.80;97082.50;1844309;77;27408;-82
2021/11/05 05:14:49;;;;;;;3.35;2.40;;;;;;;5.56;61.72;97077.05;1844443;77;26337;-81
2021/11/05 05:17:16;;;;;;;2.37;2.17;;;;;;;5.50;61.92;97075.97;1831071;77;25691;-82
2021/11/05 05:19:43;;;;;;;2.87;2.10;;;;;;;5.47;61.94;97084.88;1844254;77;26343;-82
2021/11/05 05:22:09;;;;;;;2.42;2.17;;;;;;;5.43;62.03;97087.91;1820790;77;25717;-81
2021/11/05 05:24:36;;;;;;;8.88;6.42;;;;;;;5.44;62.19;97100.80;1844309;77;27345;-83
2021/11/05 05:27:04;;;;;;;4.62;3.87;;;;;;;5.43;62.33;97097.28;1844419;77;26383;-83
2021/11/05 05:29:31;;;;;;;4.05;3.22;;;;;;;5.40;62.23;97086.97;1828996;77;25790;-83
2021/11/05 05:31:57;;;;;;;17.62;3.25;;;;;;;5.34;62.24;97078.84;1831460;77;25416;-84
2021/11/05 05:34:24;;;;;;;4.20;3.50;;;;;;;5.32;62.40;97094.25;1826870;77;25756;-82
2021/11/05 05:36:50;;;;;;;5.50;4.05;;;;;;;5.29;62.37;97093.31;1821154;77;28037;-83
2021/11/05 05:39:17;;;;;;;5.60;4.17;;;;;;;5.28;62.43;97093.81;1844111;77;25705;-82
2021/11/05 05:41:44;;;;;;;4.90;4.20;;;;;;;5.22;62.45;97075.81;1844413;77;25711;-83
2021/11/05 05:44:10;;;;;;;6.67;4.47;;;;;;;5.18;62.49;97078.55;1821375;77;25810;-83
2021/11/05 05:46:37;;;;;;;4.97;3.95;;;;;;;5.18;62.66;97084.41;1811279;77;25648;-83
2021/11/05 05:49:03;;;;;;;5.05;3.45;;;;;;;5.11;62.60;97095.52;1831467;77;27349;-84
2021/11/05 05:51:33;;;;;;;4.70;3.70;;;;;;;5.08;62.69;97105.56;1837459;77;25803;-82
2021/11/05 05:53:59;;;;;;;8.70;3.85;;;;;;;5.05;62.74;97119.84;1828953;77;25735;-82
2021/11/05 05:56:26;;;;;;;8.08;3.90;;;;;;;5.01;62.91;97135.92;1844291;77;25378;-83
2021/11/05 05:58:52;;;;;;;13.20;4.80;;;;;;;5.00;62.91;97149.80;1844367;77;25779;-82
2021/11/05 06:01:19;;;;;;;7.20;3.90;;;;;;;5.01;63.20;97147.95;1844124;77;27342;-84
2021/11/05 06:03:46;;;;;;;9.88;4.50;;;;;;;4.90;63.12;97147.90;1826906;77;25286;-83
2021/11/05 06:06:12;;;;;;;4.80;3.60;;;;;;;4.80;63.25;97154.52;1828059;77;26246;-83
2021/11/05 06:08:40;;;;;;;6.03;3.60;;;;;;;4.78;63.47;97150.69;1844180;77;26365;-83
2021/11/05 06:11:09;;;;;;;5.42;3.50;;;;;;;4.79;63.45;97146.17;1824699;77;25756;-83
2021/11/05 06:13:36;;;;;;;5.62;3.42;;;;;;;4.77;63.51;97145.52;1807335;77;27645;-83
2021/11/05 06:16:03;;;;;;;6.53;3.80;;;;;;;4.73;63.52;97144.20;1844069;77;25827;-82
2021/11/05 06:18:29;;;;;;;5.97;3.98;;;;;;;4.76;63.64;97157.22;1844111;77;25746;-84
2021/11/05 06:20:56;;;;;;;7.45;4.58;;;;;;;4.75;63.65;97158.23;1844183;77;26529;-82
2021/11/05 06:23:23;;;;;;;9.40;4.95;;;;;;;4.74;63.78;97165.92;1844218;77;25715;-83
2021/11/05 06:25:49;;;;;;;10.65;5.78;;;;;;;4.67;63.82;97178.70;1844117;77;28156;-84
2021/11/05 06:28:16;;;;;;;10.15;4.55;;;;;;;4.67;63.88;97191.23;1844157;77;25707;-84
2021/11/05 06:30:42;;;;;;;10.85;4.97;;;;;;;4.64;63.99;97191.08;1844250;77;25856;-84
2021/11/05 06:33:09;;;;;;;9.60;4.47;;;;;;;4.63;64.07;97197.94;1822575;76;25703;-84
2021/11/05 06:35:36;;;;;;;9.90;4.95;;;;;;;4.62;64.30;97213.64;1842969;77;25261;-84
2021/11/05 06:38:02;;;;;;;9.98;6.40;;;;;;;4.57;64.33;97220.05;1844174;76;27564;-84
2021/11/05 06:40:29;;;;;;;7.85;4.92;;;;;;;4.56;64.41;97207.70;1843759;77;25761;-84
2021/11/05 06:42:55;;;;;;;8.28;5.42;;;;;;;4.59;64.46;97215.33;1844178;77;25722;-84
2021/11/05 06:45:24;;;;;;;10.38;5.70;;;;;;;4.61;64.53;97215.48;1807331;77;26320;-84
2021/11/05 06:47:50;;;;;;;7.53;5.30;;;;;;;4.61;64.55;97226.69;1815918;77;25886;-84
2021/11/05 06:50:17;;;;;;;8.88;5.40;;;;;;;4.64;64.66;97224.50;1811074;77;28085;-84
2021/11/05 06:52:44;;;;;;;8.10;4.95;;;;;;;4.66;64.66;97214.46;1844041;77;25671;-84
2021/11/05 06:55:10;;;;;;;10.88;5.60;;;;;;;4.72;64.72;97211.56;1844024;77;25229;-84
2021/11/05 06:57:37;;;;;;;4.65;3.45;;;;;;;4.71;64.78;97201.36;1844101;76;26235;-84
2021/11/05 07:00:08;;;;;;;5.45;3.58;;;;;;;4.76;64.75;97198.67;1844210;77;25834;-83
2021/11/05 07:02:41;;;;;;;3.80;2.83;;;;;;;4.85;64.79;97207.77;1844101;77;27302;-84
2021/11/05 07:05:11;;;;;;;4.92;3.42;;;;;;;4.94;64.80;97220.59;1844111;77;25674;-84
2021/11/05 07:07:38;;;;;;;4.85;3.25;;;;;;;5.02;64.73;97221.84;1843730;76;25764;-84
2021/11/05 07:10:06;;;;;;;4.25;3.30;;;;;;;5.11;64.58;97230.12;1844232;77;25634;-84
2021/11/05 07:12:33;;;;;;;4.10;3.22;;;;;;;5.21;64.46;97233.87;1844134;77;25655;-84
2021/11/05 07:15:00;;;;;;;4.47;3.42;;;;;;;5.29;64.37;97227.13;1844232;77;28165;-83
2021/11/05 07:17:26;;;;;;;4.42;3.70;;;;;;;5.37;64.34;97217.16;1811846;77;25670;-84
2021/11/05 07:19:53;;;;;;;6.22;3.50;;;;;;;5.44;64.24;97219.41;1830310;77;25782;-84
2021/11/05 07:22:20;;;;;;;7.60;3.67;;;;;;;5.54;64.15;97241.09;1824922;77;26165;-84
2021/11/05 07:24:47;;;;;;;6.95;3.75;;;;;;;5.56;64.11;97231.00;1843976;77;25728;-84
2021/11/05 07:27:13;;;;;;;7.72;3.60;;;;;;;5.62;64.01;97236.47;1844164;77;28170;-84
2021/11/05 07:29:42;;;;;;;6.83;3.55;;;;;;;5.70;63.87;97234.19;1844105;77;26329;-84
2021/11/05 07:32:09;;;;;;;5.42;3.47;;;;;;;5.76;63.75;97236.14;1844105;77;25671;-84
2021/11/05 07:34:38;;;;;;;6.70;4.22;;;;;;;5.87;63.72;97245.56;1844023;77;26408;-84
2021/11/05 07:37:13;;;;;;;6.83;4.30;;;;;;;6.00;63.58;97251.95;1844092;76;25731;-84
2021/11/05 07:39:37;;;;;;;7.40;5.00;;;;;;;6.19;63.49;97255.06;1843692;76;32603;-85
2021/11/05 07:42:03;;;;;;;5.80;3.50;;;;;;;6.35;63.47;97262.90;1814282;77;25893;-83
2021/11/05 07:44:30;;;;;;;5.37;3.12;;;;;;;6.49;63.11;97262.88;1831502;77;25806;-83
2021/11/05 07:46:58;;;;;;;4.03;3.17;;;;;;;6.60;62.84;97269.59;1821772;77;25732;-84
2021/11/05 07:49:24;;;;;;;5.40;3.92;;;;;;;6.69;62.66;97272.97;1837955;77;25272;-83
2021/11/05 07:51:53;;;;;;;5.22;3.55;;;;;;;6.76;62.60;97284.08;1817760;77;27569;-84
2021/11/05 07:54:19;;;;;;;12.13;3.52;;;;;;;6.88;62.29;97283.90;1844159;77;25895;-84
2021/11/05 07:56:48;;;;;;;4.30;2.90;;;;;;;7.04;62.17;97284.17;1827032;77;25736;-84
2021/11/05 07:59:15;;;;;;;3.15;2.85;;;;;;;7.25;62.00;97284.66;1829171;77;25679;-84
2021/11/05 08:01:41;;;;;;;3.37;3.05;;;;;;;7.45;61.80;97287.02;1830506;77;25702;-84
2021/11/05 08:04:08;;;;;;;3.85;2.80;;;;;;;7.66;61.37;97288.82;1824939;77;27591;-83
2021/11/05 08:06:35;;;;;;;5.12;2.70;;;;;;;7.85;61.29;97294.00;1810936;77;25835;-83
2021/11/05 08:09:03;;;;;;;2.95;2.70;;;;;;;8.02;60.95;97289.15;1829479;77;25740;-83
2021/11/05 08:11:32;;;;;;;4.03;2.80;;;;;;;8.21;60.60;97287.91;1838013;77;25755;-84
2021/11/05 08:13:59;;;;;;;3.05;2.58;;;;;;;8.39;60.24;97287.92;1818205;77;25660;-84
2021/11/05 08:16:26;;;;;;;4.58;2.98;;;;;;;8.56;59.92;97293.28;1844245;77;27401;-84
2021/11/05 08:18:53;;;;;;;2.75;2.55;;;;;;;8.73;59.61;97310.72;1844228;77;25663;-84
2021/11/05 08:21:20;;;;;;;3.62;2.47;;;;;;;8.89;59.38;97313.05;1844436;77;26465;-83
2021/11/05 08:23:47;;;;;;;4.05;2.90;;;;;;;9.07;59.28;97302.20;1830755;77;25899;-84
2021/11/05 08:26:14;;;;;;;2.72;2.45;;;;;;;9.22;58.55;97304.20;1825311;77;25783;-83
2021/11/05 08:28:41;;;;;;;3.40;2.87;;;;;;;9.43;58.42;97291.89;1844308;77;27364;-84
2021/11/05 08:31:11;;;;;;;3.17;2.27;;;;;;;9.64;58.05;97294.91;1844174;77;25659;-84
2021/11/05 08:33:40;;;;;;;3.70;2.45;;;;;;;9.85;57.89;97296.55;1813917;77;25837;-84
2021/11/05 08:36:09;;;;;;;4.47;2.92;;;;;;;10.03;57.41;97300.76;1819060;77;25755;-84
2021/11/05 08:38:36;;;;;;;6.00;3.10;;;;;;;10.26;57.34;97302.53;1839799;77;25710;-84
2021/11/05 08:41:03;;;;;;;3.02;2.30;;;;;;;10.44;56.72;97301.31;1815949;77;27427;-84
2021/11/05 08:43:33;;;;;;;2.62;2.42;;;;;;;10.52;56.04;97305.64;1843818;77;25715;-85
2021/11/05 08:46:03;;;;;;;2.35;2.10;;;;;;;10.65;55.72;97300.19;1812782;77;25896;-85
2021/11/05 08:48:31;;;;;;;2.98;2.02;;;;;;;10.89;55.44;97309.94;1844231;76;25703;-84
2021/11/05 08:51:02;;;;;;;3.77;2.12;;;;;;;11.12;54.84;97311.05;1844335;77;26325;-84
2021/11/05 08:53:29;;;;;;;2.70;2.20;;;;;;;11.31;54.48;97312.52;1844013;76;27409;-84
2021/11/05 08:55:55;;;;;;;4.47;2.70;;;;;;;11.38;54.06;97318.16;1844124;77;25790;-84
2021/11/05 08:58:22;;;;;;;2.67;2.10;;;;;;;11.52;53.82;97314.85;1844335;77;25809;-84
2021/11/05 09:00:49;;;;;;;3.10;2.62;;;;;;;11.79;53.38;97313.62;1838076;77;26113;-85
2021/11/05 09:03:15;;;;;;;2.58;2.30;;;;;;;12.01;53.28;97319.98;1797238;77;25692;-86
2021/11/05 09:05:42;;;;;;;4.17;2.90;;;;;;;12.25;52.78;97319.13;1825707;77;28479;-85
2021/11/05 09:08:09;;;;;;;5.25;2.95;;;;;;;12.46;52.26;97330.03;1819384;77;26385;-85
2021/11/05 09:10:36;;;;;;;4.28;3.10;;;;;;;12.63;52.29;97322.45;1840888;77;25712;-85
2021/11/05 09:13:04;;;;;;;2.83;2.52;;;;;;;12.84;51.80;97318.97;1840891;77;25730;-85
2021/11/05 09:15:32;;;;;;;3.52;2.52;;;;;;;13.12;51.60;97327.36;1813508;77;25587;-85
2021/11/05 09:18:02;;;;;;;3.35;2.45;;;;;;;13.20;50.93;97312.15;1836238;77;27515;-83
2021/11/05 09:20:30;;;;;;;2.60;2.40;;;;;;;13.18;50.55;97322.39;1841041;77;25679;-85
2021/11/05 09:22:57;;;;;;;2.85;2.55;;;;;;;13.15;50.10;97318.81;1840788;77;26327;-85
2021/11/05 09:25:23;;;;;;;3.20;2.30;;;;;;;13.32;50.28;97315.73;1840986;77;26296;-85
2021/11/05 09:27:50;;;;;;;3.60;2.45;;;;;;;13.41;49.64;97322.17;1839095;77;25722;-85
2021/11/05 09:30:19;;;;;;;2.40;2.20;;;;;;;13.36;49.33;97323.41;1840990;76;27332;-85
2021/11/05 09:32:46;;;;;;;2.92;2.52;;;;;;;13.47;49.19;97316.66;1817821;77;25765;-84
2021/11/05 09:35:13;;;;;;;3.58;2.50;;;;;;;13.50;48.81;97307.25;1831694;77;25711;-84
2021/11/05 09:37:41;;;;;;;4.15;2.62;;;;;;;13.45;48.65;97305.22;1841029;77;25710;-85
2021/11/05 09:40:13;;;;;;;3.12;2.35;;;;;;;13.51;48.52;97307.55;1841115;77;25761;-85
2021/11/05 09:42:43;;;;;;;4.05;2.17;;;;;;;13.51;48.23;97315.16;1841192;77;28189;-86
2021/11/05 09:45:10;;;;;;;2.27;1.87;;;;;;;13.55;48.14;97314.97;1807749;77;25705;-85
2021/11/05 09:47:40;;;;;;;3.87;2.50;;;;;;;13.50;47.84;97316.73;1793827;77;25751;-85
2021/11/05 09:50:07;;;;;;;2.50;1.95;;;;;;;13.34;47.47;97310.91;1823492;77;25691;-85
2021/11/05 09:52:34;;;;;;;2.27;2.08;;;;;;;13.16;47.48;97314.22;1841052;77;25707;-85
2021/11/05 09:55:03;;;;;;;3.75;2.62;;;;;;;13.00;47.44;97319.70;1841044;77;27491;-85
2021/11/05 09:57:30;;;;;;;7.90;5.20;;;;;;;12.82;47.29;97319.19;1840903;77;25782;-84
2021/11/05 09:59:57;;;;;;;7.55;4.87;;;;;;;12.67;47.34;97318.77;1841039;77;25786;-86
2021/11/05 10:02:24;;;;;;;6.25;4.33;;;;;;;12.55;47.37;97325.47;1840809;77;25655;-86
2021/11/05 10:04:57;;;;;;;2.22;2.02;;;;;;;12.46;47.24;97327.33;1840712;77;25771;-84
2021/11/05 10:07:22;;;;;;;3.37;2.33;;;;;;;12.35;47.35;97324.84;1840729;77;28391;-85
2021/11/05 10:09:58;;;;;;;2.30;2.10;;;;;;;12.32;47.47;97326.64;1829642;77;25688;-85
2021/11/05 10:12:27;;;;;;;5.35;2.40;;;;;;;12.36;47.53;97333.27;1831375;77;25786;-83
2021/11/05 10:15:05;;;;;;;3.52;2.52;;;;;;;12.25;47.28;97336.72;1840691;77;26537;-85
2021/11/05 10:17:35;;;;;;;3.52;2.45;;;;;;;12.16;47.48;97334.83;1840973;77;25848;-85
2021/11/05 10:20:09;;;;;;;4.08;2.77;;;;;;;12.42;47.56;97335.09;1840975;77;27395;-84
2021/11/05 10:22:52;;;;;;;3.62;2.20;;;;;;;12.86;47.25;97342.07;1840619;77;25948;-84
2021/11/05 10:25:47;;;;;;;2.72;2.27;;;;;;;13.12;46.79;97337.37;1820945;77;25730;-85
2021/11/05 10:28:26;;;;;;;3.90;2.50;;;;;;;13.28;46.79;97324.02;1803924;77;25456;-85
2021/11/05 10:31:03;;;;;;;3.77;2.58;;;;;;;13.58;46.43;97324.00;1840971;77;25838;-84
2021/11/05 10:33:42;;;;;;;4.67;3.05;;;;;;;13.67;46.21;97322.59;1815089;77;28348;-85
2021/11/05 10:36:14;;;;;;;10.43;4.97;;;;;;;13.66;45.90;97327.72;1840772;77;26076;-86
2021/11/05 10:38:51;;;;;;;5.73;2.97;;;;;;;13.54;45.76;97330.11;1841091;77;25801;-86
2021/11/05 10:41:21;;;;;;;4.72;2.87;;;;;;;13.45;45.71;97332.33;1840834;77;25618;-85
2021/11/05 10:44:00;;;;;;;3.27;2.60;;;;;;;13.46;45.57;97323.67;1840831;77;25722;-85
2021/11/05 10:46:36;;;;;;;3.60;2.47;;;;;;;13.41;45.51;97330.30;1816253;77;28246;-85
2021/11/05 10:49:26;;;;;;;3.33;2.40;;;;;;;13.28;45.61;97336.22;1835788;77;25681;-85
2021/11/05 10:52:21;;;;;;;5.65;2.80;;;;;;;13.19;45.59;97328.11;1840762;77;25709;-85
2021/11/05 10:54:58;;;;;;;6.60;3.62;;;;;;;13.15;45.67;97337.78;1815318;77;26475;-84
2021/11/05 10:57:43;;;;;;;5.37;3.22;;;;;;;12.97;45.53;97341.30;1807217;77;25681;-85
2021/11/05 11:00:30;;;;;;;3.80;3.35;;;;;;;12.80;45.60;97335.39;1840927;77;27399;-85
2021/11/05 11:03:22;;;;;;;4.45;3.17;;;;;;;12.71;45.54;97338.91;1840801;77;25756;-85
2021/11/05 11:05:47;;;;;;;4.25;2.72;;;;;;;12.57;45.74;97326.58;1807351;77;25791;-84
2021/11/05 11:08:20;;;;;;;4.53;3.00;;;;;;;12.52;45.55;97338.09;1822639;77;25627;-85
2021/11/05 11:10:50;;;;;;;3.92;2.98;;;;;;;12.41;45.60;97328.02;1795599;77;25778;-84
2021/11/05 11:13:33;;;;;;;6.95;4.08;;;;;;;12.33;45.66;97325.59;1839120;77;27001;-85
2021/11/05 11:16:01;;;;;;;5.72;3.67;;;;;;;12.25;45.81;97334.84;1838165;77;25728;-84
2021/11/05 11:18:28;;;;;;;5.12;3.45;;;;;;;12.23;45.83;97345.58;1824053;77;25853;-83
2021/11/05 11:20:55;;;;;;;5.22;3.55;;;;;;;12.18;45.97;97344.08;1828400;77;25371;-84
2021/11/05 11:23:22;;;;;;;5.42;3.67;;;;;;;12.16;46.03;97346.17;1820961;77;25691;-85
2021/11/05 11:25:49;;;;;;;6.62;3.85;;;;;;;12.20;46.08;97354.96;1808365;77;27520;-84
2021/11/05 11:28:16;;;;;;;6.15;4.37;;;;;;;12.21;45.84;97349.03;1838731;77;26348;-84
2021/11/05 11:30:43;;;;;;;4.58;3.20;;;;;;;12.19;45.91;97354.69;1822081;77;25711;-83
2021/11/05 11:33:10;;;;;;;4.25;3.30;;;;;;;12.20;45.91;97355.48;1835945;77;26421;-84
2021/11/05 11:35:41;;;;;;;3.95;2.60;;;;;;;12.09;45.83;97353.52;1805337;77;25730;-83
2021/11/05 11:38:14;;;;;;;4.47;2.47;;;;;;;12.04;46.02;97356.91;1793945;77;27429;-84
2021/11/05 11:40:41;;;;;;;;;;;;;;;11.98;45.82;97375.88;1795669;78;25775;-83
2021/11/05 11:43:08;;;;;;;3.98;2.72;;;;;;;11.90;45.87;97383.23;1801286;78;25895;-85